Bogra, Bangladesh
Current Conditions -  °F | °C
As of 7:20 PM on Thursday 27 Nov 2014 (Local Time) from VGHS Reporting Station
Haze Haze  
Wind Chill: 73°   Ceiling: Unl
Heat Index: 73°   Visibility: 2.1mi
Dew Point: 61°   Wind: 0mph
Humidity: 65%   Direction: NA
Pressure: 29.83"   Gusts: NA
Location:  24.84°N, 89.38°E
Report Text: VGHS 271320Z 00000KT 3500 HZ NSC 23/16 Q1010 NOSIG
Loading
Personal Weather Stations






























Interactive Weather Map New forecast layout! Learn more

10-Day Weather Forecast

Advertisements
Track Severe Weather on mobile